Time;durP1;ratioP1;P1;durP2;ratioP2;P2;SDS_P1;SDS_P2;PMS_P1;PMS_P2;Temp;Humidity;BMP_temperature;BMP_pressure;BME280_temperature;BME280_humidity;BME280_pressure;Samples;Min_cycle;Max_cycle;Signal;HPM_P1;HPM_P2
2021/12/04 00:01:48;;;;;;;60.90;24.70;;;4.50;99.90;;;;;;5113035;27;20081;-80
2021/12/04 00:04:19;;;;;;;68.60;25.05;;;4.50;99.90;;;;;;5116077;27;20047;-80
2021/12/04 00:06:45;;;;;;;70.05;24.58;;;4.50;99.90;;;;;;5138813;27;20118;-76
2021/12/04 00:09:12;;;;;;;72.63;25.15;;;4.50;99.90;;;;;;5102215;27;20129;-75
2021/12/04 00:11:40;;;;;;;77.60;31.27;;;4.50;99.90;;;;;;5137019;27;20440;-76
2021/12/04 00:14:06;;;;;;;75.00;27.75;;;4.50;99.90;;;;;;5120962;27;20042;-76
2021/12/04 00:16:32;;;;;;;79.35;27.20;;;4.50;99.90;;;;;;5102737;27;20034;-76
2021/12/04 00:18:58;;;;;;;67.88;24.95;;;4.50;99.90;;;;;;5131525;27;20038;-77
2021/12/04 00:21:23;;;;;;;75.13;25.80;;;4.50;99.90;;;;;;5134457;27;20081;-80
2021/12/04 00:23:49;;;;;;;81.68;38.20;;;4.50;99.90;;;;;;5117509;27;20050;-77
2021/12/04 00:26:15;;;;;;;76.75;24.73;;;4.40;99.90;;;;;;5153756;27;20038;-76
2021/12/04 00:28:40;;;;;;;78.50;25.20;;;4.50;99.90;;;;;;5134902;27;20053;-76
2021/12/04 00:31:09;;;;;;;73.97;24.05;;;4.50;99.90;;;;;;5134786;27;20067;-76
2021/12/04 00:33:38;;;;;;;76.65;26.02;;;4.50;99.90;;;;;;5135486;27;20057;-76
2021/12/04 00:36:09;;;;;;;85.88;30.88;;;4.50;99.90;;;;;;5134620;27;20100;-78
2021/12/04 00:49:18;;;;;;;87.85;29.27;;;4.50;99.90;;;;;;5134872;27;20126;-77
2021/12/04 00:51:49;;;;;;;78.88;26.05;;;4.50;99.90;;;;;;5117963;27;20055;-82
2021/12/04 00:54:15;;;;;;;77.70;26.10;;;4.50;99.90;;;;;;5117715;27;20115;-78
2021/12/04 00:56:42;;;;;;;82.03;27.23;;;4.50;99.90;;;;;;5117818;27;20091;-77
2021/12/04 00:59:09;;;;;;;81.60;25.25;;;4.50;99.90;;;;;;5129264;28;20050;-84
2021/12/04 01:01:39;;;;;;;78.32;26.13;;;4.50;99.90;;;;;;5121666;27;20043;-76
2021/12/04 01:04:08;;;;;;;96.72;33.03;;;4.50;99.90;;;;;;5152160;27;20411;-76
2021/12/04 01:06:33;;;;;;;78.22;25.15;;;4.50;99.90;;;;;;5145108;27;20051;-82
2021/12/04 01:08:59;;;;;;;82.90;25.10;;;4.50;99.90;;;;;;5117841;27;20065;-77
2021/12/04 01:11:25;;;;;;;85.65;25.98;;;4.50;99.90;;;;;;5116661;28;20046;-76
2021/12/04 01:13:51;;;;;;;85.53;24.52;;;4.50;99.90;;;;;;5103448;27;20038;-77
2021/12/04 01:16:17;;;;;;;90.47;26.48;;;4.40;99.90;;;;;;5113794;27;20121;-76
2021/12/04 01:18:43;;;;;;;84.32;27.33;;;4.50;99.90;;;;;;5123391;27;20046;-76
2021/12/04 01:21:10;;;;;;;83.07;24.80;;;4.50;99.90;;;;;;5129912;27;20047;-77
2021/12/04 01:23:36;;;;;;;89.53;25.75;;;4.50;99.90;;;;;;5117536;27;20456;-76
2021/12/04 01:26:02;;;;;;;88.70;24.33;;;4.40;99.90;;;;;;5120859;28;20047;-76
2021/12/04 01:28:27;;;;;;;99.20;25.58;;;4.50;99.90;;;;;;5114147;27;20042;-78
2021/12/04 01:30:53;;;;;;;91.43;24.58;;;4.50;99.90;;;;;;5129899;27;20096;-79
2021/12/04 01:33:19;;;;;;;87.80;25.73;;;4.40;99.90;;;;;;5117560;27;20121;-76
2021/12/04 01:35:45;;;;;;;88.50;26.05;;;4.50;99.90;;;;;;5144252;27;20047;-76
2021/12/04 01:38:11;;;;;;;85.25;25.10;;;4.40;99.90;;;;;;5116572;27;20038;-80
2021/12/04 01:40:37;;;;;;;93.00;23.52;;;4.50;99.90;;;;;;5097712;27;20131;-80
2021/12/04 01:43:03;;;;;;;95.15;24.40;;;4.50;99.90;;;;;;5130798;27;20090;-76
2021/12/04 01:45:29;;;;;;;77.95;21.83;;;4.50;99.90;;;;;;5099365;27;20075;-76
2021/12/04 01:47:59;;;;;;;86.55;23.05;;;4.50;99.90;;;;;;5118976;27;20100;-76
2021/12/04 01:50:27;;;;;;;93.53;24.42;;;4.50;99.90;;;;;;5156156;27;20054;-76
2021/12/04 01:52:55;;;;;;;87.25;23.27;;;4.40;99.90;;;;;;5131648;27;20130;-85
2021/12/04 01:55:25;;;;;;;77.25;23.25;;;4.50;99.90;;;;;;5100838;27;20043;-76
2021/12/04 01:57:50;;;;;;;83.35;25.05;;;4.50;99.90;;;;;;5117927;27;20043;-76
2021/12/04 02:00:16;;;;;;;89.65;24.80;;;4.60;99.90;;;;;;5104078;27;20045;-76
2021/12/04 02:02:42;;;;;;;79.15;23.38;;;4.40;99.90;;;;;;5150521;27;20057;-78
2021/12/04 02:05:08;;;;;;;80.03;22.48;;;4.50;99.90;;;;;;5111555;27;20062;-76
2021/12/04 02:07:34;;;;;;;75.85;22.80;;;4.50;99.90;;;;;;5141239;27;20047;-79
2021/12/04 02:09:59;;;;;;;72.45;22.23;;;4.50;99.90;;;;;;5118559;27;20043;-76
2021/12/04 02:12:25;;;;;;;69.18;21.42;;;4.50;99.90;;;;;;5100465;27;20122;-76
2021/12/04 02:14:51;;;;;;;66.40;21.23;;;4.50;99.90;;;;;;5101083;27;20188;-77
2021/12/04 02:17:17;;;;;;;62.38;19.77;;;4.50;99.90;;;;;;5133541;27;20402;-78
2021/12/04 02:19:46;;;;;;;60.35;21.40;;;4.50;99.90;;;;;;5117003;27;20052;-77
2021/12/04 02:22:12;;;;;;;68.20;20.35;;;4.50;99.90;;;;;;5134960;27;20054;-79
2021/12/04 02:24:38;;;;;;;55.17;19.25;;;4.40;99.90;;;;;;5131565;27;20551;-76
2021/12/04 02:27:04;;;;;;;63.83;19.80;;;4.50;99.90;;;;;;5122213;27;20047;-76
2021/12/04 02:29:29;;;;;;;60.55;19.30;;;4.40;99.90;;;;;;5133551;27;20043;-85
2021/12/04 02:31:58;;;;;;;52.38;19.80;;;4.50;99.90;;;;;;5144076;27;20408;-77
2021/12/04 02:34:28;;;;;;;49.65;18.52;;;4.40;99.90;;;;;;5124864;27;20088;-80
2021/12/04 02:36:55;;;;;;;55.47;18.42;;;4.40;99.90;;;;;;5135775;27;20411;-78
2021/12/04 02:39:31;;;;;;;48.33;18.60;;;4.40;99.90;;;;;;5123900;27;20054;-77
2021/12/04 02:41:58;;;;;;;50.30;17.52;;;4.40;99.90;;;;;;5115053;27;20047;-81
2021/12/04 02:44:32;;;;;;;45.42;17.40;;;4.40;99.90;;;;;;5101356;27;20047;-79
2021/12/04 02:46:58;;;;;;;48.25;17.95;;;4.40;99.90;;;;;;5135172;27;20507;-87
2021/12/04 02:49:24;;;;;;;50.83;18.75;;;4.40;99.90;;;;;;5112571;27;20074;-78
2021/12/04 02:51:49;;;;;;;44.35;18.17;;;4.40;99.90;;;;;;5100042;27;20484;-76
2021/12/04 02:54:15;;;;;;;47.83;19.48;;;4.40;99.90;;;;;;5105507;27;20050;-76
2021/12/04 02:56:45;;;;;;;52.72;18.63;;;4.40;99.90;;;;;;5099659;27;20039;-80
2021/12/04 02:59:11;;;;;;;46.55;17.80;;;4.40;99.90;;;;;;5115146;27;20536;-82
2021/12/04 03:01:39;;;;;;;48.97;18.85;;;4.40;99.90;;;;;;5112492;27;20089;-80
2021/12/04 03:04:06;;;;;;;47.80;18.58;;;4.40;99.90;;;;;;5114514;27;20107;-76
2021/12/04 03:06:42;;;;;;;47.20;18.48;;;4.40;99.90;;;;;;5098462;27;20079;-79
2021/12/04 03:09:08;;;;;;;50.10;18.55;;;4.40;99.90;;;;;;5121260;27;20046;-76
2021/12/04 03:11:35;;;;;;;44.72;17.95;;;4.40;99.90;;;;;;5116825;27;20038;-77
2021/12/04 03:14:00;;;;;;;47.30;18.13;;;4.40;99.90;;;;;;5131019;27;20043;-81
2021/12/04 03:16:26;;;;;;;45.67;18.35;;;4.40;99.90;;;;;;5127848;27;20050;-76
2021/12/04 03:18:52;;;;;;;51.08;18.45;;;4.40;99.90;;;;;;5122586;27;20047;-76
2021/12/04 03:21:18;;;;;;;49.58;19.30;;;4.40;99.90;;;;;;5125479;27;20114;-77
2021/12/04 03:24:04;;;;;;;50.25;18.63;;;4.40;99.90;;;;;;5135974;27;20046;-78
2021/12/04 03:26:30;;;;;;;44.38;16.40;;;4.40;99.90;;;;;;5133303;27;20054;-76
2021/12/04 03:28:58;;;;;;;45.50;17.05;;;4.30;99.90;;;;;;5119291;27;20043;-76
2021/12/04 03:42:04;;;;;;;40.83;17.17;;;4.40;99.90;;;;;;5131416;27;20112;-88
2021/12/04 03:44:31;;;;;;;39.05;15.75;;;4.40;99.90;;;;;;5105392;27;20430;-78
2021/12/04 03:47:00;;;;;;;40.13;16.02;;;4.30;99.90;;;;;;5103238;27;20492;-77
2021/12/04 03:49:26;;;;;;;37.55;15.38;;;4.40;99.90;;;;;;5119617;27;20045;-77
2021/12/04 03:51:52;;;;;;;40.10;16.65;;;4.40;99.90;;;;;;5114874;27;20065;-79
2021/12/04 03:54:18;;;;;;;38.95;16.02;;;4.30;99.90;;;;;;5125747;27;20043;-76
2021/12/04 03:56:44;;;;;;;45.38;17.27;;;4.40;99.90;;;;;;5133416;27;20042;-76
2021/12/04 03:59:10;;;;;;;38.05;15.85;;;4.30;99.90;;;;;;5151556;27;20073;-76
2021/12/04 04:01:36;;;;;;;42.40;16.77;;;4.40;99.90;;;;;;5105402;27;20385;-76
2021/12/04 04:04:01;;;;;;;38.58;15.75;;;4.30;99.90;;;;;;5147306;27;20054;-76
2021/12/04 04:06:27;;;;;;;41.90;15.80;;;4.30;99.90;;;;;;5133771;27;20046;-77
2021/12/04 04:08:53;;;;;;;36.75;15.40;;;4.40;99.90;;;;;;5114443;27;20046;-77
2021/12/04 04:11:19;;;;;;;34.72;15.20;;;4.30;99.90;;;;;;5132246;27;20051;-81
2021/12/04 04:13:45;;;;;;;40.25;15.68;;;4.30;99.90;;;;;;5114465;27;20135;-76
2021/12/04 04:16:12;;;;;;;45.13;15.85;;;4.30;99.90;;;;;;5133054;27;20042;-78
2021/12/04 04:18:38;;;;;;;40.05;14.98;;;4.30;99.90;;;;;;5097842;27;20047;-77
2021/12/04 04:21:05;;;;;;;37.28;14.82;;;4.40;99.90;;;;;;5091627;27;20042;-77
2021/12/04 04:23:30;;;;;;;39.60;15.45;;;4.30;99.90;;;;;;5115904;27;20161;-77
2021/12/04 04:25:56;;;;;;;41.33;15.63;;;4.30;99.90;;;;;;5118134;27;20671;-76
2021/12/04 04:28:22;;;;;;;38.33;14.65;;;4.40;99.90;;;;;;5133082;27;20093;-76
2021/12/04 04:30:48;;;;;;;45.22;15.70;;;4.30;99.90;;;;;;5118100;27;20455;-76
2021/12/04 04:33:14;;;;;;;41.95;14.75;;;4.30;99.90;;;;;;5134659;27;20057;-77
2021/12/04 04:35:48;;;;;;;47.55;15.43;;;4.30;99.90;;;;;;5124933;27;20129;-76
2021/12/04 05:10:24;;;;;;;42.92;14.52;;;4.30;99.90;;;;;;5119652;27;20100;-76
2021/12/04 05:15:55;;;;;;;43.08;13.95;;;4.40;99.90;;;;;;5118325;27;20055;-83
2021/12/04 05:21:04;;;;;;;46.20;14.68;;;4.40;99.90;;;;;;5135865;27;20074;-76
2021/12/04 05:23:49;;;;;;;39.60;14.75;;;4.40;99.90;;;;;;5116157;27;20047;-77
2021/12/04 05:26:19;;;;;;;43.22;14.32;;;4.40;99.90;;;;;;5118299;27;20115;-76
2021/12/04 05:28:46;;;;;;;49.65;14.85;;;4.40;99.90;;;;;;5118141;27;20491;-77
2021/12/04 05:31:11;;;;;;;45.70;14.38;;;4.40;99.90;;;;;;5130891;27;20042;-77
2021/12/04 05:33:39;;;;;;;47.58;15.10;;;4.40;99.90;;;;;;5128154;27;20043;-77
2021/12/04 05:36:06;;;;;;;50.22;15.10;;;4.40;99.90;;;;;;5138612;27;20140;-76
2021/12/04 05:38:32;;;;;;;46.92;14.38;;;4.40;99.90;;;;;;5119137;27;20043;-77
2021/12/04 05:40:58;;;;;;;54.35;14.63;;;4.40;99.90;;;;;;5100740;27;20046;-77
2021/12/04 05:43:26;;;;;;;49.25;15.43;;;4.40;99.90;;;;;;5135422;27;20093;-77
2021/12/04 05:46:05;;;;;;;50.22;16.30;;;4.40;99.90;;;;;;5130300;27;20074;-77
2021/12/04 05:48:37;;;;;;;45.72;14.50;;;4.40;99.90;;;;;;5122586;27;20046;-77
2021/12/04 05:53:41;;;;;;;55.75;16.15;;;4.40;99.90;;;;;;5123861;27;20055;-77
2021/12/04 05:56:07;;;;;;;47.47;15.32;;;4.40;99.90;;;;;;5099795;27;20135;-85
2021/12/04 05:58:33;;;;;;;53.20;15.90;;;4.40;99.90;;;;;;5135676;27;20150;-78
2021/12/04 06:01:01;;;;;;;53.53;15.27;;;4.40;99.90;;;;;;5120142;27;20456;-77
2021/12/04 06:03:28;;;;;;;56.38;16.15;;;4.40;99.90;;;;;;5136571;27;20057;-77
2021/12/04 06:05:54;;;;;;;52.72;15.98;;;4.50;99.90;;;;;;5100162;27;20043;-77
2021/12/04 06:08:20;;;;;;;56.40;16.00;;;4.40;99.90;;;;;;5136425;27;20075;-77
2021/12/04 06:10:47;;;;;;;58.97;15.77;;;4.40;99.90;;;;;;5118075;27;20097;-77
2021/12/04 06:13:13;;;;;;;53.60;16.08;;;4.40;99.90;;;;;;5124336;27;20125;-77
2021/12/04 06:15:39;;;;;;;54.70;15.38;;;4.40;99.90;;;;;;5115466;27;20051;-76
2021/12/04 06:18:05;;;;;;;57.40;16.70;;;4.40;99.90;;;;;;5134932;27;20047;-77
2021/12/04 06:23:15;;;;;;;51.67;15.45;;;4.40;99.90;;;;;;5135688;27;20050;-77
2021/12/04 06:25:41;;;;;;;59.53;16.65;;;4.40;99.90;;;;;;5136128;27;20403;-77
2021/12/04 06:28:07;;;;;;;51.95;15.77;;;4.40;99.90;;;;;;5135191;27;20045;-77
2021/12/04 06:30:37;;;;;;;50.40;15.30;;;4.40;99.90;;;;;;5104045;27;20057;-77
2021/12/04 06:33:08;;;;;;;60.22;15.18;;;4.40;99.90;;;;;;5122786;27;20049;-77
2021/12/04 06:35:36;;;;;;;43.38;15.15;;;4.40;99.90;;;;;;5119050;27;20111;-80
2021/12/04 06:38:02;;;;;;;48.25;15.82;;;4.40;99.90;;;;;;5120015;27;20050;-79
2021/12/04 06:40:28;;;;;;;51.47;17.08;;;4.40;99.90;;;;;;5118713;27;20804;-77
2021/12/04 06:42:59;;;;;;;42.38;15.98;;;4.50;99.90;;;;;;5136747;27;20074;-78
2021/12/04 06:45:28;;;;;;;49.95;16.52;;;4.40;99.90;;;;;;5136478;27;20082;-83
2021/12/04 06:47:57;;;;;;;56.08;17.65;;;4.40;99.90;;;;;;5136700;27;20050;-79
2021/12/04 06:53:30;;;;;;;50.45;15.88;;;4.40;99.90;;;;;;5121829;27;20145;-81
2021/12/04 06:55:54;;;;;;;46.45;15.20;;;4.50;99.90;;;;;;5135404;27;20106;-77
2021/12/04 06:58:21;;;;;;;53.30;16.48;;;4.40;99.90;;;;;;5136541;27;20399;-77
2021/12/04 07:00:47;;;;;;;50.55;15.60;;;4.40;99.90;;;;;;5118205;27;20046;-80
2021/12/04 07:03:13;;;;;;;43.95;14.60;;;4.40;99.90;;;;;;5118691;27;20066;-77
2021/12/04 07:05:39;;;;;;;46.53;15.10;;;4.40;99.90;;;;;;5136304;27;20460;-77
2021/12/04 07:08:05;;;;;;;57.03;15.77;;;4.50;99.90;;;;;;5119494;27;20503;-77
2021/12/04 07:10:33;;;;;;;53.95;16.95;;;4.50;99.90;;;;;;5154467;27;20038;-86
2021/12/04 07:12:59;;;;;;;48.63;15.15;;;4.50;99.90;;;;;;5136184;27;20054;-77
2021/12/04 07:15:27;;;;;;;54.45;16.38;;;4.50;99.90;;;;;;5136177;27;20051;-77
2021/12/04 07:17:53;;;;;;;53.97;15.93;;;4.50;99.90;;;;;;5135976;27;20047;-77
2021/12/04 07:20:19;;;;;;;48.55;16.20;;;4.50;99.90;;;;;;5135673;27;20411;-79
2021/12/04 07:22:45;;;;;;;51.17;16.42;;;4.40;99.90;;;;;;5135118;27;20053;-77
2021/12/04 07:25:11;;;;;;;56.28;16.65;;;4.40;99.90;;;;;;5153820;27;20043;-80
2021/12/04 07:27:37;;;;;;;50.65;16.73;;;4.40;99.90;;;;;;5118315;27;20046;-76
2021/12/04 07:30:06;;;;;;;46.80;15.20;;;4.40;99.90;;;;;;5118925;27;20144;-77
2021/12/04 07:32:32;;;;;;;49.25;15.25;;;4.40;99.90;;;;;;5119249;27;20174;-83
2021/12/04 07:34:58;;;;;;;48.78;14.85;;;4.40;99.90;;;;;;5133961;27;20110;-77
2021/12/04 07:37:24;;;;;;;48.17;15.80;;;4.40;99.90;;;;;;5117602;27;20139;-77
2021/12/04 07:39:50;;;;;;;61.88;15.60;;;4.40;99.90;;;;;;5118862;27;20536;-77
2021/12/04 07:42:15;;;;;;;50.05;14.98;;;4.40;99.90;;;;;;5144738;27;20134;-76
2021/12/04 07:44:41;;;;;;;55.78;15.50;;;4.40;99.90;;;;;;5133254;27;20134;-78
2021/12/04 07:47:07;;;;;;;52.95;16.10;;;4.40;99.90;;;;;;5127526;27;20066;-77
2021/12/04 07:49:33;;;;;;;62.88;16.05;;;4.40;99.90;;;;;;5101298;27;20058;-83
2021/12/04 07:51:59;;;;;;;62.45;16.75;;;4.40;99.90;;;;;;5123761;27;20043;-75
2021/12/04 07:54:24;;;;;;;61.20;15.45;;;4.40;99.90;;;;;;5097582;27;20063;-76
2021/12/04 07:56:50;;;;;;;50.85;14.32;;;4.40;99.90;;;;;;5114656;27;20139;-76
2021/12/04 07:59:15;;;;;;;48.08;14.82;;;4.30;99.90;;;;;;5133544;27;20070;-76
2021/12/04 08:01:41;;;;;;;50.78;14.20;;;4.40;99.90;;;;;;5132434;27;20058;-79
2021/12/04 08:04:07;;;;;;;51.42;15.02;;;4.40;99.90;;;;;;5122747;27;20055;-78
2021/12/04 08:06:34;;;;;;;39.88;12.60;;;4.40;99.90;;;;;;5116185;27;20126;-75
2021/12/04 08:09:00;;;;;;;43.28;14.32;;;4.40;99.90;;;;;;5115728;27;20074;-76
2021/12/04 08:11:26;;;;;;;42.85;14.38;;;4.30;99.90;;;;;;5132829;27;20096;-75
2021/12/04 08:13:52;;;;;;;36.40;13.25;;;4.30;99.90;;;;;;5132281;27;20043;-78
2021/12/04 08:16:23;;;;;;;41.03;13.82;;;4.30;99.90;;;;;;5142997;27;20077;-76
2021/12/04 08:18:49;;;;;;;38.28;13.15;;;4.40;99.90;;;;;;5097578;28;20078;-76
2021/12/04 08:21:15;;;;;;;35.05;12.77;;;4.40;99.90;;;;;;5097316;27;20510;-76
2021/12/04 08:23:41;;;;;;;32.97;12.82;;;4.40;99.90;;;;;;5132696;27;20039;-78
2021/12/04 08:26:07;;;;;;;29.23;11.77;;;4.40;99.90;;;;;;5101187;27;20050;-76
2021/12/04 08:28:32;;;;;;;31.92;13.25;;;4.40;99.90;;;;;;5116837;27;20154;-77
2021/12/04 08:30:58;;;;;;;30.67;11.93;;;4.40;99.90;;;;;;5147260;27;20055;-76
2021/12/04 08:33:24;;;;;;;35.88;15.90;;;4.40;99.90;;;;;;5133945;27;20043;-76
2021/12/04 08:35:50;;;;;;;32.83;13.25;;;4.50;99.90;;;;;;5122811;27;20474;-82
2021/12/04 08:38:16;;;;;;;32.42;15.43;;;4.50;99.90;;;;;;5115108;27;20046;-76
2021/12/04 08:40:43;;;;;;;31.20;13.70;;;4.50;99.90;;;;;;5101524;27;20047;-80
2021/12/04 08:43:11;;;;;;;30.23;12.85;;;4.50;99.90;;;;;;5142326;27;20046;-75
2021/12/04 08:45:39;;;;;;;30.60;13.32;;;4.60;99.90;;;;;;5138967;27;20163;-76
2021/12/04 08:48:05;;;;;;;30.00;13.50;;;4.50;99.90;;;;;;5156703;27;20042;-76
2021/12/04 08:50:33;;;;;;;33.45;13.23;;;4.60;99.90;;;;;;5132700;27;20391;-75
2021/12/04 08:53:01;;;;;;;33.28;14.25;;;4.60;99.90;;;;;;5120177;27;20116;-74
2021/12/04 08:55:28;;;;;;;33.10;13.40;;;4.60;99.90;;;;;;5147281;27;20046;-76
2021/12/04 08:57:54;;;;;;;32.40;13.27;;;4.70;99.90;;;;;;5131558;27;20050;-76
2021/12/04 09:00:41;;;;;;;37.08;14.60;;;4.70;99.90;;;;;;5136913;27;20121;-77
2021/12/04 09:03:08;;;;;;;33.50;13.55;;;4.70;99.90;;;;;;5148462;27;20488;-82
2021/12/04 09:05:36;;;;;;;38.85;13.68;;;4.80;99.90;;;;;;5119871;27;20099;-77
2021/12/04 09:08:04;;;;;;;32.92;12.95;;;4.80;99.90;;;;;;5129834;27;20130;-76
2021/12/04 09:10:30;;;;;;;30.35;12.85;;;4.90;99.90;;;;;;5134526;27;20261;-75
2021/12/04 09:12:55;;;;;;;29.70;12.73;;;4.90;99.90;;;;;;5135756;27;20523;-76
2021/12/04 09:15:26;;;;;;;30.52;12.57;;;4.90;99.90;;;;;;5153626;27;20058;-79
2021/12/04 09:17:52;;;;;;;33.17;13.52;;;4.90;99.90;;;;;;5101263;27;20136;-77
2021/12/04 09:20:18;;;;;;;29.58;13.30;;;4.90;99.90;;;;;;5137322;27;20038;-77
2021/12/04 09:22:45;;;;;;;28.25;12.52;;;4.90;99.90;;;;;;5125966;27;20079;-86
2021/12/04 09:25:21;;;;;;;27.42;13.23;;;4.90;99.90;;;;;;5134400;27;20065;-81
2021/12/04 09:33:43;;;;;;;27.15;11.38;;;4.90;99.90;;;;;;5132651;27;20690;-77
2021/12/04 10:02:01;;;;;;;29.45;13.52;;;5.30;99.90;;;;;;5073654;28;20056;-76
2021/12/04 10:18:17;;;;;;;29.38;12.45;;;5.30;99.90;;;;;;5129942;27;20071;-75
2021/12/04 10:34:15;;;;;;;29.83;12.25;;;5.40;99.90;;;;;;5113701;27;20129;-79
2021/12/04 10:36:41;;;;;;;31.00;12.40;;;5.40;99.90;;;;;;5113514;27;20070;-75
2021/12/04 10:39:10;;;;;;;27.05;12.00;;;5.50;99.90;;;;;;5113513;27;20054;-79
2021/12/04 10:41:43;;;;;;;30.13;12.93;;;5.30;99.90;;;;;;5114920;27;20058;-75
2021/12/04 10:44:21;;;;;;;27.55;13.30;;;5.40;99.90;;;;;;5134037;27;20126;-77
2021/12/04 10:47:02;;;;;;;27.23;12.45;;;5.40;99.90;;;;;;5133063;27;20051;-74
2021/12/04 10:50:10;;;;;;;35.88;12.95;;;5.40;99.90;;;;;;5099038;27;20108;-74
2021/12/04 10:55:18;;;;;;;31.20;12.50;;;5.40;99.90;;;;;;5115052;27;20545;-76
2021/12/04 11:03:36;;;;;;;30.60;12.90;;;5.40;99.90;;;;;;5134391;27;20066;-79
2021/12/04 11:36:22;;;;;;;40.65;14.70;;;5.50;99.90;;;;;;5135831;27;20103;-75
2021/12/04 11:38:53;;;;;;;43.60;18.17;;;5.40;99.90;;;;;;5106884;27;20046;-75
2021/12/04 11:41:33;;;;;;;50.22;23.88;;;5.40;99.90;;;;;;5154121;27;20415;-75
2021/12/04 11:44:05;;;;;;;70.03;35.47;;;5.40;99.90;;;;;;5120585;27;20054;-77
2021/12/04 11:46:42;;;;;;;39.72;15.48;;;5.40;99.90;;;;;;5154099;27;20095;-76
2021/12/04 11:49:20;;;;;;;38.38;16.05;;;5.50;99.90;;;;;;5135867;27;20471;-77
2021/12/04 11:51:57;;;;;;;39.42;15.40;;;5.40;99.90;;;;;;5135997;27;20070;-75
2021/12/04 11:54:25;;;;;;;41.22;17.05;;;5.30;99.90;;;;;;5153829;27;20035;-75
2021/12/04 11:57:06;;;;;;;47.75;23.67;;;5.30;99.90;;;;;;5135477;27;20047;-75
2021/12/04 11:59:34;;;;;;;41.55;18.60;;;5.30;99.90;;;;;;5135517;27;20127;-75
2021/12/04 12:02:02;;;;;;;42.08;17.85;;;5.30;99.90;;;;;;5135523;27;20050;-75
2021/12/04 12:04:37;;;;;;;43.47;17.88;;;5.20;99.90;;;;;;5153778;27;20069;-76
2021/12/04 12:07:10;;;;;;;44.97;17.90;;;5.30;99.90;;;;;;5135805;27;20043;-75
2021/12/04 12:09:37;;;;;;;45.10;17.55;;;5.20;99.90;;;;;;5135262;27;20284;-75
2021/12/04 12:12:06;;;;;;;47.83;18.40;;;5.20;99.90;;;;;;5135454;27;20133;-75
2021/12/04 12:14:55;;;;;;;45.13;17.83;;;5.30;99.90;;;;;;5152855;27;20053;-77
2021/12/04 12:17:39;;;;;;;49.72;17.88;;;5.30;99.90;;;;;;5135451;27;20054;-75
2021/12/04 12:20:13;;;;;;;49.55;17.92;;;5.40;99.90;;;;;;5117886;27;20049;-80
2021/12/04 12:33:43;;;;;;;56.25;20.27;;;5.50;99.90;;;;;;5134173;27;20059;-75
2021/12/04 12:36:24;;;;;;;54.92;21.20;;;5.50;99.90;;;;;;5133409;27;20050;-85
2021/12/04 12:39:06;;;;;;;61.67;20.58;;;5.50;99.90;;;;;;5133543;27;20495;-78
2021/12/04 12:41:38;;;;;;;64.07;22.88;;;5.40;99.90;;;;;;5134325;27;20043;-75
2021/12/04 12:44:19;;;;;;;62.90;23.20;;;5.40;99.90;;;;;;5153164;27;20086;-75
2021/12/04 12:46:49;;;;;;;67.63;22.77;;;5.40;99.90;;;;;;5134620;27;20043;-76
2021/12/04 12:49:24;;;;;;;71.90;24.13;;;5.40;99.90;;;;;;5152840;27;20039;-76
2021/12/04 12:52:13;;;;;;;70.70;24.27;;;5.40;99.90;;;;;;5134915;27;20051;-76
2021/12/04 12:54:50;;;;;;;69.15;22.25;;;5.40;99.90;;;;;;5121102;27;20074;-77
2021/12/04 12:57:34;;;;;;;66.95;22.75;;;5.30;99.90;;;;;;5134036;27;20495;-76
2021/12/04 13:11:52;;;;;;;77.90;25.02;;;5.40;99.90;;;;;;5133596;27;20065;-76
2021/12/04 13:14:25;;;;;;;81.97;23.52;;;5.40;99.90;;;;;;5133238;27;20049;-77
2021/12/04 13:17:11;;;;;;;76.57;25.27;;;5.40;99.90;;;;;;5116758;27;20195;-77
2021/12/04 13:19:39;;;;;;;86.25;25.67;;;5.40;99.90;;;;;;5116755;27;20043;-76
2021/12/04 13:22:13;;;;;;;78.82;24.92;;;5.40;99.90;;;;;;5134097;27;20125;-76
2021/12/04 13:24:41;;;;;;;76.30;24.08;;;5.40;99.90;;;;;;5153880;27;20074;-77
2021/12/04 13:29:42;;;;;;;68.90;22.50;;;5.40;99.90;;;;;;5137502;27;20443;-76
2021/12/04 13:32:10;;;;;;;65.72;21.83;;;5.40;99.90;;;;;;5138169;27;20084;-76
2021/12/04 13:34:38;;;;;;;60.95;20.98;;;5.40;99.90;;;;;;5137386;27;20051;-76
2021/12/04 13:37:05;;;;;;;70.47;20.45;;;5.50;99.90;;;;;;5137603;27;20055;-76
2021/12/04 13:39:31;;;;;;;64.13;22.10;;;5.40;99.90;;;;;;5137637;27;20049;-76
2021/12/04 13:41:57;;;;;;;61.75;20.08;;;5.40;99.90;;;;;;5120474;27;20043;-76
2021/12/04 13:44:25;;;;;;;57.58;20.15;;;5.40;99.90;;;;;;5120643;27;20053;-76
2021/12/04 13:46:59;;;;;;;58.60;21.23;;;5.40;99.90;;;;;;5137521;27;20038;-76
2021/12/04 13:49:33;;;;;;;52.00;19.48;;;5.40;99.90;;;;;;5137698;27;20394;-76
2021/12/04 13:52:06;;;;;;;55.30;19.95;;;5.40;99.90;;;;;;5156263;27;20045;-79
2021/12/04 13:54:35;;;;;;;66.57;21.55;;;5.40;99.90;;;;;;5120272;27;20051;-76
2021/12/04 13:57:06;;;;;;;61.92;21.77;;;5.40;99.90;;;;;;5155900;27;20034;-77
2021/12/04 13:59:32;;;;;;;65.50;22.33;;;5.40;99.90;;;;;;5103839;27;20127;-76
2021/12/04 14:01:57;;;;;;;69.13;22.88;;;5.40;99.90;;;;;;5156057;27;20088;-78
2021/12/04 14:04:23;;;;;;;63.72;21.63;;;5.40;99.90;;;;;;5119709;27;20073;-76
2021/12/04 14:06:57;;;;;;;65.97;23.92;;;5.40;99.90;;;;;;5120496;27;20054;-76
2021/12/04 14:09:33;;;;;;;63.53;22.75;;;5.40;99.90;;;;;;5155683;27;20042;-77
2021/12/04 14:12:00;;;;;;;64.90;22.42;;;5.40;99.90;;;;;;5156133;27;20046;-76
2021/12/04 14:14:29;;;;;;;62.97;23.45;;;5.40;99.90;;;;;;5136940;27;20046;-76
2021/12/04 14:17:02;;;;;;;67.38;23.65;;;5.30;99.90;;;;;;5156031;27;20100;-76
2021/12/04 14:19:29;;;;;;;74.70;25.10;;;5.30;99.90;;;;;;5155192;27;20039;-76
2021/12/04 14:22:10;;;;;;;70.22;24.65;;;5.40;99.90;;;;;;5137128;27;20399;-76
2021/12/04 14:24:48;;;;;;;67.22;24.70;;;5.30;99.90;;;;;;5155435;27;20061;-76
2021/12/04 14:27:20;;;;;;;74.40;25.60;;;5.40;99.90;;;;;;5136810;27;20054;-76
2021/12/04 14:29:54;;;;;;;74.70;23.85;;;5.30;99.90;;;;;;5119786;27;20051;-76
2021/12/04 14:32:29;;;;;;;73.53;25.40;;;5.30;99.90;;;;;;5136954;27;20039;-82
2021/12/04 14:35:04;;;;;;;77.53;25.20;;;5.30;99.90;;;;;;5136976;27;20134;-76
2021/12/04 14:37:34;;;;;;;82.22;26.40;;;5.30;99.90;;;;;;5119078;27;20082;-76
2021/12/04 14:40:00;;;;;;;77.43;26.75;;;5.30;99.90;;;;;;5136758;27;20043;-76
2021/12/04 14:42:30;;;;;;;83.07;27.15;;;5.30;99.90;;;;;;5119624;27;20495;-76
2021/12/04 14:45:00;;;;;;;85.95;26.50;;;5.30;99.90;;;;;;5119510;27;20038;-75
2021/12/04 14:47:31;;;;;;;81.55;26.13;;;5.30;99.90;;;;;;5136286;27;20484;-76
2021/12/04 14:50:01;;;;;;;83.95;26.35;;;5.20;99.90;;;;;;5119535;27;20057;-78
2021/12/04 14:52:31;;;;;;;86.80;26.88;;;5.20;99.90;;;;;;5136897;27;20043;-76
2021/12/04 14:54:57;;;;;;;87.75;26.08;;;5.20;99.90;;;;;;5136655;27;20054;-75
2021/12/04 14:57:26;;;;;;;87.97;26.05;;;5.20;99.90;;;;;;5154971;27;20085;-83
2021/12/04 15:00:12;;;;;;;86.97;27.38;;;5.20;99.90;;;;;;5136079;27;20511;-80
2021/12/04 15:02:38;;;;;;;;;;;5.20;99.90;;;;;;5136444;27;20054;-76
2021/12/04 15:05:05;;;;;;;82.40;25.40;;;5.20;99.90;;;;;;5155125;27;20368;-76
2021/12/04 15:07:33;;;;;;;85.85;26.25;;;5.20;99.90;;;;;;5135958;27;20129;-76
2021/12/04 15:10:15;;;;;;;87.97;27.23;;;5.20;99.90;;;;;;5119618;27;20038;-78
2021/12/04 15:12:41;;;;;;;85.32;26.85;;;5.20;99.90;;;;;;5154548;27;20043;-76
2021/12/04 15:15:09;;;;;;;87.43;26.55;;;5.20;99.90;;;;;;5136219;27;20068;-75
2021/12/04 15:17:35;;;;;;;81.95;27.02;;;5.20;99.90;;;;;;5154143;27;20542;-76
2021/12/04 15:20:10;;;;;;;84.05;28.00;;;5.20;99.90;;;;;;5136104;27;20039;-76
2021/12/04 15:22:42;;;;;;;78.65;25.50;;;5.20;99.90;;;;;;5135913;27;20043;-76
2021/12/04 15:25:13;;;;;;;94.07;27.25;;;5.20;99.90;;;;;;5118874;27;20193;-77
2021/12/04 15:27:39;;;;;;;82.95;25.90;;;5.10;99.90;;;;;;5153948;27;20091;-76
2021/12/04 15:30:10;;;;;;;84.03;26.67;;;5.20;99.90;;;;;;5134854;27;20129;-76
2021/12/04 15:32:38;;;;;;;90.72;26.55;;;5.20;99.90;;;;;;5134900;27;20566;-75
2021/12/04 15:38:02;;;;;;;84.47;26.13;;;5.20;99.90;;;;;;5135087;27;20050;-75
2021/12/04 15:40:45;;;;;;;94.32;27.40;;;5.20;99.90;;;;;;5153957;27;20499;-83
2021/12/04 15:46:33;;;;;;;89.75;27.23;;;5.20;99.90;;;;;;5135622;27;20050;-77
2021/12/04 15:54:06;;;;;;;87.55;26.42;;;5.20;99.90;;;;;;5153564;27;20054;-76
2021/12/04 15:56:41;;;;;;;86.95;27.27;;;5.20;99.90;;;;;;5134243;27;20054;-79
2021/12/04 15:59:06;;;;;;;89.10;26.80;;;5.20;99.90;;;;;;5133950;27;20042;-75
2021/12/04 16:01:32;;;;;;;80.57;26.40;;;5.20;99.90;;;;;;5133180;27;20053;-77
2021/12/04 16:03:59;;;;;;;91.93;27.75;;;5.20;99.90;;;;;;5152584;27;20104;-76
2021/12/04 16:06:45;;;;;;;93.60;28.30;;;5.20;99.90;;;;;;5133993;27;20062;-75
2021/12/04 16:09:12;;;;;;;100.28;28.45;;;5.20;99.90;;;;;;5133079;27;20423;-78